Terminal Aerodrome Forecast
Issued by NWS

Home | Current Version | Previous Version | Text Only | Print | Product List | Glossary On
Versions: 1 2 3 4 5 6 7 8 9 10 11 12 13 14 15 16 17 18 19 20 21 22 23 24
000
FTUS46 KSEW 191100
TAFSEA
TAF
KSEA 191120Z 1912/2018 09006KT P6SM BKN100 OVC200
     FM191400 15006KT P6SM SCT050 BKN100 OVC200
     FM191800 18010KT P6SM -RA BKN050 OVC080
     FM192000 21015G25KT P6SM -RA OVC045
     FM192200 22015G25KT P6SM -SHRA BKN040 OVC060
     FM200600 20012KT P6SM VCSH BKN040 OVC060
     FM201200 18008KT P6SM BKN025=

USA.gov is the U.S. government's official web portal to all federal, state and local government web resources and services.